KEKN/EKN METAR and TAF weather

Enter ICAO airport designator
Station Type Date Time Source
KEKN METAR 2019/10/18 06:51 UTC NOAA

KEKN 180651Z AUTO 30004KT 10SM OVC047 07/02 A2996 RMK AO2 SLP154 T00720017


Station Type Date Time Source
KEKN Decoded METAR 2019/10/18 06:51 UTC NOAA

JENNINGS RANDOLPH FIELD, WV, United States (KEKN) 38-53N 079-51W 603M
Oct 18, 2019 - 02:51 AM EDT / 2019.10.18 0651 UTC
Wind: from the WNW (300 degrees) at 5 MPH (4 KT):0
Visibility: 10 mile(s):0
Sky conditions: overcast
Temperature: 45.0 F (7.2 C)
Dew Point: 35.1 F (1.7 C)
Relative Humidity: 68%
Pressure (altimeter): 29.96 in. Hg (1014 hPa)
ob: KEKN 180651Z AUTO 30004KT 10SM OVC047 07/02 A2996 RMK AO2 SLP154 T00720017
cycle: 7

Station Type Date Time Source
KEKN TAF 2019/10/18 06:30 UTC NOAA

TAF KEKN 180527Z 1806/1906 30008KT P6SM SCT030 OVC050
FM180900 00000KT P6SM OVC050
FM181300 VRB03KT P6SM BKN060
FM181800 31006KT P6SM SCT050

Example: see airport list